FBSK/GBE METAR and TAF weather

Enter ICAO airport designator
Station Type Date Time Source
FBSK METAR 2020/01/20 13:00 UTC NOAA

FBSK 201300Z 01007KT 310V070 9999 BKN030 29/17 Q1016 NOSIG


Station Type Date Time Source
FBSK Decoded METAR 2020/01/20 13:00 UTC NOAA

Seretse Khama International Airport, Botswana (FBSK) 24-13S 025-55E 1005M
Jan 20, 2020 - 08:00 AM EST / 2020.01.20 1300 UTC
Wind: from the N (010 degrees) at 8 MPH (7 KT) (direction variable):0
Visibility: greater than 7 mile(s):0
Sky conditions: mostly cloudy
Temperature: 84 F (29 C)
Dew Point: 62 F (17 C)
Relative Humidity: 48%
Pressure (altimeter): 30.00 in. Hg (1016 hPa)
ob: FBSK 201300Z 01007KT 310V070 9999 BKN030 29/17 Q1016 NOSIG
cycle: 13

Station Type Date Time Source
FBSK TAF 2020/01/20 12:43 UTC NOAA

TAF FBSK 200900Z 2012/2118 05010KT 9999 SCT025 FEW035CB
BECMG 2018/2020 CAVOK
BECMG 2104/2106 BKN014
BECMG 2109/2111 SCT025

Example: see airport list